sensor_id;sensor_type;location;lat;lon;timestamp;temperature;humidity
292;DHT22;23311;48.776;9.162;2023-12-22T00:02:24;7.40;95.50
292;DHT22;23311;48.776;9.162;2023-12-22T00:04:53;7.50;95.50
292;DHT22;23311;48.776;9.162;2023-12-22T00:07:22;7.50;95.50
292;DHT22;23311;48.776;9.162;2023-12-22T00:09:50;7.60;95.50
292;DHT22;23311;48.776;9.162;2023-12-22T00:12:18;7.60;95.50
292;DHT22;23311;48.776;9.162;2023-12-22T00:14:46;7.80;95.50
292;DHT22;23311;48.776;9.162;2023-12-22T00:17:14;7.80;95.50
292;DHT22;23311;48.776;9.162;2023-12-22T00:19:44;7.80;95.50
292;DHT22;23311;48.776;9.162;2023-12-22T00:22:14;8.00;95.50
292;DHT22;23311;48.776;9.162;2023-12-22T00:24:42;8.10;95.50
292;DHT22;23311;48.776;9.162;2023-12-22T00:27:10;8.00;95.50
292;DHT22;23311;48.776;9.162;2023-12-22T00:29:38;8.00;95.50
292;DHT22;23311;48.776;9.162;2023-12-22T00:32:06;8.20;95.50
292;DHT22;23311;48.776;9.162;2023-12-22T00:34:36;8.20;95.50
292;DHT22;23311;48.776;9.162;2023-12-22T00:37:07;8.10;95.50
292;DHT22;23311;48.776;9.162;2023-12-22T00:39:35;8.10;95.50
292;DHT22;23311;48.776;9.162;2023-12-22T00:42:04;8.10;95.50
292;DHT22;23311;48.776;9.162;2023-12-22T00:44:32;8.10;95.50
292;DHT22;23311;48.776;9.162;2023-12-22T00:47:00;8.00;95.50
292;DHT22;23311;48.776;9.162;2023-12-22T00:49:28;7.80;95.50
292;DHT22;23311;48.776;9.162;2023-12-22T00:51:56;7.60;95.50
292;DHT22;23311;48.776;9.162;2023-12-22T00:54:26;7.50;95.50
292;DHT22;23311;48.776;9.162;2023-12-22T00:56:57;7.50;95.50
292;DHT22;23311;48.776;9.162;2023-12-22T00:59:25;7.50;95.50
292;DHT22;23311;48.776;9.162;2023-12-22T01:01:53;7.40;95.50
292;DHT22;23311;48.776;9.162;2023-12-22T01:04:22;7.50;95.50
292;DHT22;23311;48.776;9.162;2023-12-22T01:06:52;7.50;95.50
292;DHT22;23311;48.776;9.162;2023-12-22T01:09:20;7.60;95.50
292;DHT22;23311;48.776;9.162;2023-12-22T01:11:49;7.50;95.50
292;DHT22;23311;48.776;9.162;2023-12-22T01:14:17;7.60;95.50
292;DHT22;23311;48.776;9.162;2023-12-22T01:16:46;7.70;95.50
292;DHT22;23311;48.776;9.162;2023-12-22T01:19:14;7.70;95.50
292;DHT22;23311;48.776;9.162;2023-12-22T01:21:42;7.70;95.50
292;DHT22;23311;48.776;9.162;2023-12-22T01:24:10;7.60;95.50
292;DHT22;23311;48.776;9.162;2023-12-22T01:26:39;7.70;95.50
292;DHT22;23311;48.776;9.162;2023-12-22T01:29:08;7.90;95.50
292;DHT22;23311;48.776;9.162;2023-12-22T01:31:37;7.90;95.50
292;DHT22;23311;48.776;9.162;2023-12-22T01:34:05;7.80;95.50
292;DHT22;23311;48.776;9.162;2023-12-22T01:36:34;7.70;95.50
292;DHT22;23311;48.776;9.162;2023-12-22T01:39:02;7.90;95.50
292;DHT22;23311;48.776;9.162;2023-12-22T01:41:34;8.00;95.50
292;DHT22;23311;48.776;9.162;2023-12-22T01:44:03;7.90;95.50
292;DHT22;23311;48.776;9.162;2023-12-22T01:46:33;7.90;95.50
292;DHT22;23311;48.776;9.162;2023-12-22T01:49:02;7.80;95.50
292;DHT22;23311;48.776;9.162;2023-12-22T01:51:32;7.80;95.50
292;DHT22;23311;48.776;9.162;2023-12-22T01:54:00;7.90;95.50
292;DHT22;23311;48.776;9.162;2023-12-22T01:56:29;7.90;95.50
292;DHT22;23311;48.776;9.162;2023-12-22T01:58:59;8.10;95.50
292;DHT22;23311;48.776;9.162;2023-12-22T02:01:28;8.00;95.50
292;DHT22;23311;48.776;9.162;2023-12-22T02:03:59;8.10;95.50
292;DHT22;23311;48.776;9.162;2023-12-22T02:06:29;8.10;95.50
292;DHT22;23311;48.776;9.162;2023-12-22T02:08:58;8.20;95.50
292;DHT22;23311;48.776;9.162;2023-12-22T02:11:27;8.10;95.50
292;DHT22;23311;48.776;9.162;2023-12-22T02:13:56;8.10;95.50
292;DHT22;23311;48.776;9.162;2023-12-22T02:16:31;8.10;95.50
292;DHT22;23311;48.776;9.162;2023-12-22T02:19:12;8.10;95.50
292;DHT22;23311;48.776;9.162;2023-12-22T02:21:59;8.00;95.50
292;DHT22;23311;48.776;9.162;2023-12-22T02:24:33;8.10;95.50
292;DHT22;23311;48.776;9.162;2023-12-22T02:27:04;8.10;95.50
292;DHT22;23311;48.776;9.162;2023-12-22T02:29:37;8.10;95.50
292;DHT22;23311;48.776;9.162;2023-12-22T02:32:14;8.20;95.50
292;DHT22;23311;48.776;9.162;2023-12-22T02:34:48;8.20;95.50
292;DHT22;23311;48.776;9.162;2023-12-22T02:37:18;8.20;95.50
292;DHT22;23311;48.776;9.162;2023-12-22T02:39:49;8.10;95.50
292;DHT22;23311;48.776;9.162;2023-12-22T02:42:20;8.20;95.50
292;DHT22;23311;48.776;9.162;2023-12-22T02:44:51;8.20;95.50
292;DHT22;23311;48.776;9.162;2023-12-22T02:47:20;8.30;95.50
292;DHT22;23311;48.776;9.162;2023-12-22T02:49:48;8.30;95.50
292;DHT22;23311;48.776;9.162;2023-12-22T02:52:18;8.30;95.50
292;DHT22;23311;48.776;9.162;2023-12-22T02:54:47;8.30;95.50
292;DHT22;23311;48.776;9.162;2023-12-22T02:57:16;8.30;95.50
292;DHT22;23311;48.776;9.162;2023-12-22T02:59:44;8.40;95.50
292;DHT22;23311;48.776;9.162;2023-12-22T03:02:12;8.40;95.50
292;DHT22;23311;48.776;9.162;2023-12-22T03:04:40;8.50;95.50
292;DHT22;23311;48.776;9.162;2023-12-22T03:07:09;8.50;95.50
292;DHT22;23311;48.776;9.162;2023-12-22T03:09:38;8.60;95.50
292;DHT22;23311;48.776;9.162;2023-12-22T03:12:09;8.50;95.50
292;DHT22;23311;48.776;9.162;2023-12-22T03:14:38;8.60;95.50
292;DHT22;23311;48.776;9.162;2023-12-22T03:17:06;8.50;95.50
292;DHT22;23311;48.776;9.162;2023-12-22T03:19:35;8.50;95.50
292;DHT22;23311;48.776;9.162;2023-12-22T03:22:03;8.50;95.50
292;DHT22;23311;48.776;9.162;2023-12-22T03:24:31;8.50;95.50
292;DHT22;23311;48.776;9.162;2023-12-22T03:27:00;8.50;95.50
292;DHT22;23311;48.776;9.162;2023-12-22T03:29:30;8.60;95.50
292;DHT22;23311;48.776;9.162;2023-12-22T03:31:58;8.60;95.50
292;DHT22;23311;48.776;9.162;2023-12-22T03:34:26;8.70;95.50
292;DHT22;23311;48.776;9.162;2023-12-22T03:36:55;8.70;95.50
292;DHT22;23311;48.776;9.162;2023-12-22T03:39:23;8.60;95.50
292;DHT22;23311;48.776;9.162;2023-12-22T03:41:51;8.60;95.50
292;DHT22;23311;48.776;9.162;2023-12-22T03:44:20;8.60;95.50
292;DHT22;23311;48.776;9.162;2023-12-22T03:46:53;8.70;95.50
292;DHT22;23311;48.776;9.162;2023-12-22T03:49:22;8.60;95.50
292;DHT22;23311;48.776;9.162;2023-12-22T03:51:51;8.60;95.50
292;DHT22;23311;48.776;9.162;2023-12-22T03:54:19;8.60;95.50
292;DHT22;23311;48.776;9.162;2023-12-22T03:56:47;8.60;95.50
292;DHT22;23311;48.776;9.162;2023-12-22T03:59:16;8.50;95.50
292;DHT22;23311;48.776;9.162;2023-12-22T04:01:50;8.00;95.50
292;DHT22;23311;48.776;9.162;2023-12-22T04:04:21;7.70;95.50
292;DHT22;23311;48.776;9.162;2023-12-22T04:06:50;7.50;95.50
292;DHT22;23311;48.776;9.162;2023-12-22T04:09:19;7.40;95.50
292;DHT22;23311;48.776;9.162;2023-12-22T04:11:47;7.40;95.50
292;DHT22;23311;48.776;9.162;2023-12-22T04:14:15;7.40;95.50
292;DHT22;23311;48.776;9.162;2023-12-22T04:16:45;7.40;95.50
292;DHT22;23311;48.776;9.162;2023-12-22T04:19:14;7.30;95.50
292;DHT22;23311;48.776;9.162;2023-12-22T04:21:44;7.40;95.50
292;DHT22;23311;48.776;9.162;2023-12-22T04:24:13;7.40;95.50
292;DHT22;23311;48.776;9.162;2023-12-22T04:26:41;7.50;95.50
292;DHT22;23311;48.776;9.162;2023-12-22T04:29:09;7.40;95.50
292;DHT22;23311;48.776;9.162;2023-12-22T04:31:38;7.40;95.50
292;DHT22;23311;48.776;9.162;2023-12-22T04:34:06;7.40;95.50
292;DHT22;23311;48.776;9.162;2023-12-22T04:36:35;7.40;95.50
292;DHT22;23311;48.776;9.162;2023-12-22T04:39:05;7.40;95.50
292;DHT22;23311;48.776;9.162;2023-12-22T04:41:33;7.60;95.50
292;DHT22;23311;48.776;9.162;2023-12-22T04:44:01;7.70;95.50
292;DHT22;23311;48.776;9.162;2023-12-22T04:46:30;7.70;95.50
292;DHT22;23311;48.776;9.162;2023-12-22T04:48:58;7.80;95.50
292;DHT22;23311;48.776;9.162;2023-12-22T04:51:28;7.80;95.50
292;DHT22;23311;48.776;9.162;2023-12-22T04:53:56;7.80;95.50
292;DHT22;23311;48.776;9.162;2023-12-22T04:56:26;7.80;95.50
292;DHT22;23311;48.776;9.162;2023-12-22T04:58:55;7.90;95.50
292;DHT22;23311;48.776;9.162;2023-12-22T05:01:23;8.10;95.50
292;DHT22;23311;48.776;9.162;2023-12-22T05:03:51;8.00;95.50
292;DHT22;23311;48.776;9.162;2023-12-22T05:06:20;8.00;95.50
292;DHT22;23311;48.776;9.162;2023-12-22T05:08:49;8.10;95.50
292;DHT22;23311;48.776;9.162;2023-12-22T05:11:18;8.10;95.50
292;DHT22;23311;48.776;9.162;2023-12-22T05:13:48;8.20;95.50
292;DHT22;23311;48.776;9.162;2023-12-22T05:16:16;8.30;95.50
292;DHT22;23311;48.776;9.162;2023-12-22T05:18:45;8.30;95.50
292;DHT22;23311;48.776;9.162;2023-12-22T05:21:13;8.30;95.50
292;DHT22;23311;48.776;9.162;2023-12-22T05:23:42;8.30;95.50
292;DHT22;23311;48.776;9.162;2023-12-22T05:26:16;8.30;95.50
292;DHT22;23311;48.776;9.162;2023-12-22T05:28:44;8.30;95.50
292;DHT22;23311;48.776;9.162;2023-12-22T05:31:14;8.40;95.50
292;DHT22;23311;48.776;9.162;2023-12-22T05:33:43;8.30;95.50
292;DHT22;23311;48.776;9.162;2023-12-22T05:36:11;8.30;95.50
292;DHT22;23311;48.776;9.162;2023-12-22T05:38:39;8.10;95.50
292;DHT22;23311;48.776;9.162;2023-12-22T05:41:08;8.00;95.50
292;DHT22;23311;48.776;9.162;2023-12-22T05:43:37;7.80;95.50
292;DHT22;23311;48.776;9.162;2023-12-22T05:46:05;7.80;95.50
292;DHT22;23311;48.776;9.162;2023-12-22T05:48:36;7.80;95.50
292;DHT22;23311;48.776;9.162;2023-12-22T05:51:04;7.80;95.50
292;DHT22;23311;48.776;9.162;2023-12-22T05:53:34;7.80;95.50
292;DHT22;23311;48.776;9.162;2023-12-22T05:56:03;8.00;95.50
292;DHT22;23311;48.776;9.162;2023-12-22T05:58:31;8.10;95.50
292;DHT22;23311;48.776;9.162;2023-12-22T06:01:00;8.00;95.50
292;DHT22;23311;48.776;9.162;2023-12-22T06:03:28;8.30;95.50
292;DHT22;23311;48.776;9.162;2023-12-22T06:05:58;8.40;95.50
292;DHT22;23311;48.776;9.162;2023-12-22T06:08:30;8.40;95.50
292;DHT22;23311;48.776;9.162;2023-12-22T06:10:59;8.50;95.50
292;DHT22;23311;48.776;9.162;2023-12-22T06:13:27;8.60;95.50
292;DHT22;23311;48.776;9.162;2023-12-22T06:15:55;8.70;95.50
292;DHT22;23311;48.776;9.162;2023-12-22T06:18:23;8.60;95.50
292;DHT22;23311;48.776;9.162;2023-12-22T06:20:52;8.60;95.50
292;DHT22;23311;48.776;9.162;2023-12-22T06:23:21;8.60;95.50
292;DHT22;23311;48.776;9.162;2023-12-22T06:25:50;8.50;95.50
292;DHT22;23311;48.776;9.162;2023-12-22T06:28:18;8.60;95.50
292;DHT22;23311;48.776;9.162;2023-12-22T06:30:46;8.60;95.50
292;DHT22;23311;48.776;9.162;2023-12-22T06:33:14;8.60;95.50
292;DHT22;23311;48.776;9.162;2023-12-22T06:35:43;8.60;95.50
292;DHT22;23311;48.776;9.162;2023-12-22T06:38:12;8.60;95.50
292;DHT22;23311;48.776;9.162;2023-12-22T06:40:42;8.50;95.50
292;DHT22;23311;48.776;9.162;2023-12-22T06:43:11;8.60;95.50
292;DHT22;23311;48.776;9.162;2023-12-22T06:45:39;8.70;95.50
292;DHT22;23311;48.776;9.162;2023-12-22T06:48:08;8.70;95.50
292;DHT22;23311;48.776;9.162;2023-12-22T06:50:37;8.60;95.50
292;DHT22;23311;48.776;9.162;2023-12-22T06:53:07;8.70;95.50
292;DHT22;23311;48.776;9.162;2023-12-22T06:55:49;8.70;95.50
292;DHT22;23311;48.776;9.162;2023-12-22T06:58:17;8.70;95.50
292;DHT22;23311;48.776;9.162;2023-12-22T07:00:48;8.70;95.50
292;DHT22;23311;48.776;9.162;2023-12-22T07:03:17;8.70;95.50
292;DHT22;23311;48.776;9.162;2023-12-22T07:05:46;8.60;95.50
292;DHT22;23311;48.776;9.162;2023-12-22T07:08:14;8.60;95.50
292;DHT22;23311;48.776;9.162;2023-12-22T07:10:43;8.50;95.50
292;DHT22;23311;48.776;9.162;2023-12-22T07:13:14;8.50;95.50
292;DHT22;23311;48.776;9.162;2023-12-22T07:15:44;8.50;95.50
292;DHT22;23311;48.776;9.162;2023-12-22T07:18:12;8.50;95.50
292;DHT22;23311;48.776;9.162;2023-12-22T07:20:41;8.50;95.50
292;DHT22;23311;48.776;9.162;2023-12-22T07:23:10;8.50;95.50
292;DHT22;23311;48.776;9.162;2023-12-22T07:25:39;8.40;95.50
292;DHT22;23311;48.776;9.162;2023-12-22T07:28:08;8.30;95.50
292;DHT22;23311;48.776;9.162;2023-12-22T07:30:39;8.30;95.50
292;DHT22;23311;48.776;9.162;2023-12-22T07:33:08;8.20;95.50
292;DHT22;23311;48.776;9.162;2023-12-22T07:35:38;8.10;95.50
292;DHT22;23311;48.776;9.162;2023-12-22T07:38:06;8.30;95.50
292;DHT22;23311;48.776;9.162;2023-12-22T07:40:36;8.30;95.50
292;DHT22;23311;48.776;9.162;2023-12-22T07:43:05;8.40;95.50
292;DHT22;23311;48.776;9.162;2023-12-22T07:45:34;8.30;95.50
292;DHT22;23311;48.776;9.162;2023-12-22T07:48:05;8.30;95.50
292;DHT22;23311;48.776;9.162;2023-12-22T07:50:34;8.30;95.50
292;DHT22;23311;48.776;9.162;2023-12-22T07:53:03;8.30;95.50
292;DHT22;23311;48.776;9.162;2023-12-22T07:55:34;8.30;95.50
292;DHT22;23311;48.776;9.162;2023-12-22T07:58:03;8.30;95.50
292;DHT22;23311;48.776;9.162;2023-12-22T08:00:32;8.30;95.50
292;DHT22;23311;48.776;9.162;2023-12-22T08:03:00;8.20;95.50
292;DHT22;23311;48.776;9.162;2023-12-22T08:05:30;7.90;95.50
292;DHT22;23311;48.776;9.162;2023-12-22T08:07:58;7.80;95.50
292;DHT22;23311;48.776;9.162;2023-12-22T08:10:27;7.70;95.50
292;DHT22;23311;48.776;9.162;2023-12-22T08:12:55;7.60;95.50
292;DHT22;23311;48.776;9.162;2023-12-22T08:15:23;7.60;95.50
292;DHT22;23311;48.776;9.162;2023-12-22T08:18:02;7.40;95.50
292;DHT22;23311;48.776;9.162;2023-12-22T08:20:32;7.40;95.50
292;DHT22;23311;48.776;9.162;2023-12-22T08:23:06;7.30;95.50
292;DHT22;23311;48.776;9.162;2023-12-22T08:25:38;7.20;95.50
292;DHT22;23311;48.776;9.162;2023-12-22T08:28:08;7.20;95.50
292;DHT22;23311;48.776;9.162;2023-12-22T08:30:36;7.30;95.50
292;DHT22;23311;48.776;9.162;2023-12-22T08:33:05;7.30;95.50
292;DHT22;23311;48.776;9.162;2023-12-22T08:35:35;7.30;95.50
292;DHT22;23311;48.776;9.162;2023-12-22T08:38:07;7.30;95.50
292;DHT22;23311;48.776;9.162;2023-12-22T08:40:36;7.40;95.50
292;DHT22;23311;48.776;9.162;2023-12-22T08:43:05;7.40;95.50
292;DHT22;23311;48.776;9.162;2023-12-22T08:45:33;7.50;95.50
292;DHT22;23311;48.776;9.162;2023-12-22T08:48:03;7.50;95.50
292;DHT22;23311;48.776;9.162;2023-12-22T08:50:36;7.70;95.50
292;DHT22;23311;48.776;9.162;2023-12-22T08:53:04;7.80;95.50
292;DHT22;23311;48.776;9.162;2023-12-22T08:55:33;7.80;95.50
292;DHT22;23311;48.776;9.162;2023-12-22T08:58:02;7.80;95.50
292;DHT22;23311;48.776;9.162;2023-12-22T09:00:32;7.80;95.50
292;DHT22;23311;48.776;9.162;2023-12-22T09:03:02;7.90;95.50
292;DHT22;23311;48.776;9.162;2023-12-22T09:05:31;7.90;95.50
292;DHT22;23311;48.776;9.162;2023-12-22T09:08:01;7.90;95.50
292;DHT22;23311;48.776;9.162;2023-12-22T09:10:29;7.90;95.50
292;DHT22;23311;48.776;9.162;2023-12-22T09:12:57;8.00;95.50
292;DHT22;23311;48.776;9.162;2023-12-22T09:15:27;8.00;95.50
292;DHT22;23311;48.776;9.162;2023-12-22T09:17:55;8.10;95.50
292;DHT22;23311;48.776;9.162;2023-12-22T09:20:23;8.20;95.50
292;DHT22;23311;48.776;9.162;2023-12-22T09:22:52;8.20;95.50
292;DHT22;23311;48.776;9.162;2023-12-22T09:27:51;8.40;95.50
292;DHT22;23311;48.776;9.162;2023-12-22T09:30:19;8.40;95.50
292;DHT22;23311;48.776;9.162;2023-12-22T09:32:50;8.50;95.50
292;DHT22;23311;48.776;9.162;2023-12-22T09:35:19;8.50;95.50
292;DHT22;23311;48.776;9.162;2023-12-22T09:37:48;8.60;95.50
292;DHT22;23311;48.776;9.162;2023-12-22T09:40:17;8.60;95.50
292;DHT22;23311;48.776;9.162;2023-12-22T09:42:47;8.70;95.50
292;DHT22;23311;48.776;9.162;2023-12-22T09:45:17;8.70;95.50
292;DHT22;23311;48.776;9.162;2023-12-22T09:47:48;8.80;95.50
292;DHT22;23311;48.776;9.162;2023-12-22T09:50:17;8.80;95.50
292;DHT22;23311;48.776;9.162;2023-12-22T09:52:46;8.80;95.50
292;DHT22;23311;48.776;9.162;2023-12-22T09:55:15;8.80;95.50
292;DHT22;23311;48.776;9.162;2023-12-22T09:57:46;8.90;95.50
292;DHT22;23311;48.776;9.162;2023-12-22T10:00:17;8.90;95.50
292;DHT22;23311;48.776;9.162;2023-12-22T10:02:46;8.90;95.50
292;DHT22;23311;48.776;9.162;2023-12-22T10:05:17;8.90;95.50
292;DHT22;23311;48.776;9.162;2023-12-22T10:07:47;8.90;95.50
292;DHT22;23311;48.776;9.162;2023-12-22T10:10:17;8.90;95.50
292;DHT22;23311;48.776;9.162;2023-12-22T10:12:47;9.00;95.50
292;DHT22;23311;48.776;9.162;2023-12-22T10:15:16;9.00;95.50
292;DHT22;23311;48.776;9.162;2023-12-22T10:17:46;9.00;95.50
292;DHT22;23311;48.776;9.162;2023-12-22T10:20:16;9.00;95.50
292;DHT22;23311;48.776;9.162;2023-12-22T10:22:44;9.00;95.50
292;DHT22;23311;48.776;9.162;2023-12-22T10:25:15;9.00;95.50
292;DHT22;23311;48.776;9.162;2023-12-22T10:27:44;9.00;95.50
292;DHT22;23311;48.776;9.162;2023-12-22T10:30:17;9.10;95.50
292;DHT22;23311;48.776;9.162;2023-12-22T10:32:46;9.10;95.50
292;DHT22;23311;48.776;9.162;2023-12-22T10:35:15;9.20;95.50
292;DHT22;23311;48.776;9.162;2023-12-22T10:37:43;9.20;95.50
292;DHT22;23311;48.776;9.162;2023-12-22T10:40:15;9.20;95.50
292;DHT22;23311;48.776;9.162;2023-12-22T10:42:45;9.10;95.50
292;DHT22;23311;48.776;9.162;2023-12-22T10:45:15;9.10;95.50
292;DHT22;23311;48.776;9.162;2023-12-22T10:47:44;9.10;95.50
292;DHT22;23311;48.776;9.162;2023-12-22T10:50:13;9.10;95.50
292;DHT22;23311;48.776;9.162;2023-12-22T10:52:49;9.10;95.50
292;DHT22;23311;48.776;9.162;2023-12-22T10:55:17;9.10;95.50
292;DHT22;23311;48.776;9.162;2023-12-22T10:57:47;9.00;95.50
292;DHT22;23311;48.776;9.162;2023-12-22T11:00:20;9.00;95.50
292;DHT22;23311;48.776;9.162;2023-12-22T11:02:49;9.00;95.50
292;DHT22;23311;48.776;9.162;2023-12-22T11:05:18;9.00;95.50
292;DHT22;23311;48.776;9.162;2023-12-22T11:07:49;9.00;95.50
292;DHT22;23311;48.776;9.162;2023-12-22T11:10:20;9.00;95.50
292;DHT22;23311;48.776;9.162;2023-12-22T11:12:50;8.90;95.50
292;DHT22;23311;48.776;9.162;2023-12-22T11:15:21;8.80;95.50
292;DHT22;23311;48.776;9.162;2023-12-22T11:17:51;8.70;95.50
292;DHT22;23311;48.776;9.162;2023-12-22T11:20:22;8.60;95.50
292;DHT22;23311;48.776;9.162;2023-12-22T11:22:51;8.60;95.50
292;DHT22;23311;48.776;9.162;2023-12-22T11:25:21;8.50;95.50
292;DHT22;23311;48.776;9.162;2023-12-22T11:27:51;8.50;95.50
292;DHT22;23311;48.776;9.162;2023-12-22T11:30:22;8.40;95.50
292;DHT22;23311;48.776;9.162;2023-12-22T11:32:53;8.30;95.50
292;DHT22;23311;48.776;9.162;2023-12-22T11:35:23;8.30;95.50
292;DHT22;23311;48.776;9.162;2023-12-22T11:38:01;8.20;95.50
292;DHT22;23311;48.776;9.162;2023-12-22T11:40:29;8.20;95.50
292;DHT22;23311;48.776;9.162;2023-12-22T11:42:58;8.20;95.50
292;DHT22;23311;48.776;9.162;2023-12-22T11:45:32;8.10;95.50
292;DHT22;23311;48.776;9.162;2023-12-22T11:48:08;8.00;95.50
292;DHT22;23311;48.776;9.162;2023-12-22T11:50:38;8.00;95.50
292;DHT22;23311;48.776;9.162;2023-12-22T11:53:20;8.00;95.50
292;DHT22;23311;48.776;9.162;2023-12-22T11:56:00;7.90;95.50
292;DHT22;23311;48.776;9.162;2023-12-22T11:58:34;7.90;95.50
292;DHT22;23311;48.776;9.162;2023-12-22T12:01:06;7.90;95.50
292;DHT22;23311;48.776;9.162;2023-12-22T12:03:37;7.90;95.50
292;DHT22;23311;48.776;9.162;2023-12-22T12:06:21;7.90;95.50
292;DHT22;23311;48.776;9.162;2023-12-22T12:08:50;7.90;95.50
292;DHT22;23311;48.776;9.162;2023-12-22T12:11:18;7.90;95.50
292;DHT22;23311;48.776;9.162;2023-12-22T12:13:47;7.90;95.50
292;DHT22;23311;48.776;9.162;2023-12-22T12:16:20;7.90;95.50
292;DHT22;23311;48.776;9.162;2023-12-22T12:18:50;7.90;95.50
292;DHT22;23311;48.776;9.162;2023-12-22T12:21:20;7.90;95.50
292;DHT22;23311;48.776;9.162;2023-12-22T12:23:50;7.90;95.50
292;DHT22;23311;48.776;9.162;2023-12-22T12:26:19;8.00;95.50
292;DHT22;23311;48.776;9.162;2023-12-22T12:28:48;8.00;95.50
292;DHT22;23311;48.776;9.162;2023-12-22T12:31:18;7.90;95.50
292;DHT22;23311;48.776;9.162;2023-12-22T12:33:47;7.90;95.50
292;DHT22;23311;48.776;9.162;2023-12-22T12:36:16;7.90;95.50
292;DHT22;23311;48.776;9.162;2023-12-22T12:38:52;7.90;95.50
292;DHT22;23311;48.776;9.162;2023-12-22T12:41:29;7.90;95.50
292;DHT22;23311;48.776;9.162;2023-12-22T12:44:03;7.90;95.50
292;DHT22;23311;48.776;9.162;2023-12-22T12:46:33;7.90;95.50
292;DHT22;23311;48.776;9.162;2023-12-22T12:49:03;7.90;95.50
292;DHT22;23311;48.776;9.162;2023-12-22T12:51:35;8.00;95.50
292;DHT22;23311;48.776;9.162;2023-12-22T12:54:06;8.00;95.50
292;DHT22;23311;48.776;9.162;2023-12-22T12:56:39;8.00;95.50
292;DHT22;23311;48.776;9.162;2023-12-22T12:59:08;8.00;95.50
292;DHT22;23311;48.776;9.162;2023-12-22T13:01:41;7.90;95.50
292;DHT22;23311;48.776;9.162;2023-12-22T13:04:10;8.00;95.50
292;DHT22;23311;48.776;9.162;2023-12-22T13:06:44;8.00;95.50
292;DHT22;23311;48.776;9.162;2023-12-22T13:09:12;8.00;95.50
292;DHT22;23311;48.776;9.162;2023-12-22T13:11:42;8.00;95.50
292;DHT22;23311;48.776;9.162;2023-12-22T13:14:10;8.00;95.50
292;DHT22;23311;48.776;9.162;2023-12-22T13:16:41;8.10;95.50
292;DHT22;23311;48.776;9.162;2023-12-22T13:19:09;8.10;95.50
292;DHT22;23311;48.776;9.162;2023-12-22T13:21:38;8.20;95.50
292;DHT22;23311;48.776;9.162;2023-12-22T13:24:10;8.30;95.50
292;DHT22;23311;48.776;9.162;2023-12-22T13:26:40;8.40;95.50
292;DHT22;23311;48.776;9.162;2023-12-22T13:29:12;8.70;95.50
292;DHT22;23311;48.776;9.162;2023-12-22T13:31:43;9.00;95.50
292;DHT22;23311;48.776;9.162;2023-12-22T13:34:13;9.20;95.50
292;DHT22;23311;48.776;9.162;2023-12-22T13:36:42;9.40;95.50
292;DHT22;23311;48.776;9.162;2023-12-22T13:39:11;9.40;95.50
292;DHT22;23311;48.776;9.162;2023-12-22T13:41:40;9.60;95.50
292;DHT22;23311;48.776;9.162;2023-12-22T13:44:13;9.60;95.50
292;DHT22;23311;48.776;9.162;2023-12-22T13:46:43;9.70;95.50
292;DHT22;23311;48.776;9.162;2023-12-22T13:49:13;9.60;95.50
292;DHT22;23311;48.776;9.162;2023-12-22T13:51:42;9.80;95.50
292;DHT22;23311;48.776;9.162;2023-12-22T13:54:10;9.80;95.50
292;DHT22;23311;48.776;9.162;2023-12-22T13:56:39;10.00;95.50
292;DHT22;23311;48.776;9.162;2023-12-22T13:59:09;10.00;95.50
292;DHT22;23311;48.776;9.162;2023-12-22T14:01:38;10.00;95.50
292;DHT22;23311;48.776;9.162;2023-12-22T14:04:09;10.00;95.50
292;DHT22;23311;48.776;9.162;2023-12-22T14:06:38;10.00;95.50
292;DHT22;23311;48.776;9.162;2023-12-22T14:09:06;10.00;95.50
292;DHT22;23311;48.776;9.162;2023-12-22T14:11:35;10.00;95.50
292;DHT22;23311;48.776;9.162;2023-12-22T14:14:10;10.10;95.50
292;DHT22;23311;48.776;9.162;2023-12-22T14:16:39;10.00;95.50
292;DHT22;23311;48.776;9.162;2023-12-22T14:19:09;10.10;95.50
292;DHT22;23311;48.776;9.162;2023-12-22T14:21:37;10.20;95.50
292;DHT22;23311;48.776;9.162;2023-12-22T14:24:06;10.20;95.50
292;DHT22;23311;48.776;9.162;2023-12-22T14:26:52;10.20;95.50
292;DHT22;23311;48.776;9.162;2023-12-22T14:29:21;10.20;95.50
292;DHT22;23311;48.776;9.162;2023-12-22T14:31:50;10.20;95.50
292;DHT22;23311;48.776;9.162;2023-12-22T14:34:21;10.20;95.50
292;DHT22;23311;48.776;9.162;2023-12-22T14:36:50;10.20;95.50
292;DHT22;23311;48.776;9.162;2023-12-22T14:39:18;10.20;95.50
292;DHT22;23311;48.776;9.162;2023-12-22T14:41:47;10.30;95.50
292;DHT22;23311;48.776;9.162;2023-12-22T14:44:15;10.20;95.50
292;DHT22;23311;48.776;9.162;2023-12-22T14:46:43;10.20;95.50
292;DHT22;23311;48.776;9.162;2023-12-22T14:49:13;10.30;95.50
292;DHT22;23311;48.776;9.162;2023-12-22T14:51:44;10.20;95.50
292;DHT22;23311;48.776;9.162;2023-12-22T14:54:13;10.30;95.50
292;DHT22;23311;48.776;9.162;2023-12-22T14:56:42;10.30;95.50
292;DHT22;23311;48.776;9.162;2023-12-22T14:59:10;10.30;95.50
292;DHT22;23311;48.776;9.162;2023-12-22T15:01:38;10.30;95.50
292;DHT22;23311;48.776;9.162;2023-12-22T15:04:07;10.40;95.50
292;DHT22;23311;48.776;9.162;2023-12-22T15:06:37;10.30;95.50
292;DHT22;23311;48.776;9.162;2023-12-22T15:09:07;10.40;95.50
292;DHT22;23311;48.776;9.162;2023-12-22T15:11:40;10.40;95.50
292;DHT22;23311;48.776;9.162;2023-12-22T15:14:09;10.40;95.50
292;DHT22;23311;48.776;9.162;2023-12-22T15:16:40;10.40;95.50
292;DHT22;23311;48.776;9.162;2023-12-22T15:19:11;10.30;95.50
292;DHT22;23311;48.776;9.162;2023-12-22T15:21:40;10.30;95.50
292;DHT22;23311;48.776;9.162;2023-12-22T15:24:11;10.30;95.50
292;DHT22;23311;48.776;9.162;2023-12-22T15:26:40;10.30;95.50
292;DHT22;23311;48.776;9.162;2023-12-22T15:29:08;10.20;95.50
292;DHT22;23311;48.776;9.162;2023-12-22T15:31:37;10.30;95.50
292;DHT22;23311;48.776;9.162;2023-12-22T15:34:05;10.30;95.50
292;DHT22;23311;48.776;9.162;2023-12-22T15:36:33;10.30;95.50
292;DHT22;23311;48.776;9.162;2023-12-22T15:39:02;10.40;95.50
292;DHT22;23311;48.776;9.162;2023-12-22T15:41:32;10.30;95.50
292;DHT22;23311;48.776;9.162;2023-12-22T15:44:01;10.40;95.50
292;DHT22;23311;48.776;9.162;2023-12-22T15:46:29;10.50;95.50
292;DHT22;23311;48.776;9.162;2023-12-22T15:48:59;10.40;95.50
292;DHT22;23311;48.776;9.162;2023-12-22T15:51:27;10.50;95.50
292;DHT22;23311;48.776;9.162;2023-12-22T15:53:56;10.50;95.50
292;DHT22;23311;48.776;9.162;2023-12-22T15:56:24;10.50;95.50
292;DHT22;23311;48.776;9.162;2023-12-22T15:58:54;10.60;95.50
292;DHT22;23311;48.776;9.162;2023-12-22T16:01:22;10.50;95.50
292;DHT22;23311;48.776;9.162;2023-12-22T16:03:50;10.50;95.50
292;DHT22;23311;48.776;9.162;2023-12-22T16:06:19;10.60;95.50
292;DHT22;23311;48.776;9.162;2023-12-22T16:08:47;10.60;95.50
292;DHT22;23311;48.776;9.162;2023-12-22T16:11:19;10.60;95.50
292;DHT22;23311;48.776;9.162;2023-12-22T16:13:47;10.50;95.50
292;DHT22;23311;48.776;9.162;2023-12-22T16:16:18;10.60;95.50
292;DHT22;23311;48.776;9.162;2023-12-22T16:18:46;10.60;95.50
292;DHT22;23311;48.776;9.162;2023-12-22T16:21:16;10.60;95.50
292;DHT22;23311;48.776;9.162;2023-12-22T16:23:44;10.60;95.50
292;DHT22;23311;48.776;9.162;2023-12-22T16:26:13;10.60;95.50
292;DHT22;23311;48.776;9.162;2023-12-22T16:28:46;10.50;95.50
292;DHT22;23311;48.776;9.162;2023-12-22T16:31:14;10.50;95.50
292;DHT22;23311;48.776;9.162;2023-12-22T16:33:50;10.50;95.50